This is the latest recevied weather packets stored in our database for station/object KN6CRX. If no packets are shown the sender has not sent any weather packets the latest 10 day(s).
| Time | Temp. | Humidity | Pressure | Rain* | Wind** | Luminosity | Snow |
|---|---|---|---|---|---|---|---|
| 1787710493 | 24.44° C | 37% | 1024.9 hPa | 0 mm | - | 0 W/m² | - |
| 1787710189 | 24.44° C | 36% | 1024.6 hPa | 0 mm | - | 1 W/m² | - |
| 1787709883 | 25° C | 35% | 1024.6 hPa | 0 mm | - | 2 W/m² | - |
| 1787709578 | 25° C | 35% | 1024.6 hPa | 0 mm | - | 3 W/m² | - |
| 1787709275 | 24.44° C | 34% | 1024.5 hPa | 0 mm | - | 4 W/m² | - |
| 1787708971 | 23.89° C | 35% | 1024.4 hPa | 0 mm | - | 6 W/m² | - |
| 1787708667 | 23.89° C | 40% | 1024.5 hPa | 0 mm | - | 10 W/m² | - |
| 1787708361 | 24.44° C | 37% | 1024.1 hPa | 0 mm | - | 14 W/m² | - |
| 1787708056 | 24.44° C | 36% | 1023.8 hPa | 0 mm | - | 18 W/m² | - |
| 1787707753 | 24.44° C | 37% | 1024 hPa | 0 mm | - | 20 W/m² | - |
| 1787707453 | 25° C | 36% | 1023.9 hPa | 0 mm | - | 20 W/m² | - |
| 1787707148 | 25° C | 35% | 1023.8 hPa | 0 mm | - | 19 W/m² | - |
| 1787706843 | 25° C | 33% | 1023.7 hPa | 0 mm | - | 18 W/m² | - |
| 1787706538 | 25° C | 33% | 1023.6 hPa | 0 mm | - | 23 W/m² | - |
| 1787706233 | 24.44° C | 35% | 1023.7 hPa | 0 mm | - | 30 W/m² | - |
| 1787705928 | 24.44° C | 36% | 1023.9 hPa | 0 mm | - | 34 W/m² | - |
| 1787705623 | 24.44° C | 36% | 1023.9 hPa | 0 mm | - | 33 W/m² | - |
| 1787705319 | 24.44° C | 39% | 1024.3 hPa | 0 mm | - | 30 W/m² | - |
| 1787705019 | 25° C | 38% | 1024 hPa | 0 mm | - | 37 W/m² | - |
| 1787704716 | 25.56° C | 38% | 1024 hPa | 0 mm | - | 66 W/m² | - |
| 1787704411 | 25.56° C | 35% | 1023.8 hPa | 0 mm | - | 69 W/m² | - |
| 1787704106 | 25.56° C | 34% | 1023.7 hPa | 0 mm | - | 74 W/m² | - |
| 1787703805 | 26.11° C | 34% | 1023.8 hPa | 0 mm | - | 90 W/m² | - |
| 1787703501 | 26.67° C | 33% | 1023.6 hPa | 0 mm | - | 103 W/m² | - |
| 1787703195 | 27.22° C | 30% | 1023.6 hPa | 0 mm | - | 103 W/m² | - |
* Rain latest hour (hover to see other rain measurements)
** Current wind speed in m/s (hover to see current wind gust speed)